Time;durP1;ratioP1;P1;durP2;ratioP2;P2;SDS_P1;SDS_P2;PMS_P1;PMS_P2;Temp;Humidity;BMP_temperature;BMP_pressure;BME280_temperature;BME280_humidity;BME280_pressure;Samples;Min_cycle;Max_cycle;Signal;HPM_P1;HPM_P2
2020/12/07 00:00:27;;;;;;;18.73;13.53;;;;;;;1.28;81.93;98918.33;516814;1090;65153;-69
2020/12/07 00:10:32;;;;;;;18.10;13.00;;;;;;;1.29;82.00;98929.53;516613;1096;65152;-68
2020/12/07 00:20:37;;;;;;;17.40;11.45;;;;;;;1.28;81.30;98926.09;516983;1097;65316;-69
2020/12/07 00:30:40;;;;;;;18.57;11.20;;;;;;;1.22;81.69;98913.40;516817;1096;65150;-69
2020/12/07 00:40:44;;;;;;;16.60;12.63;;;;;;;1.12;81.43;98892.18;517283;1090;65306;-70
2020/12/07 00:50:48;;;;;;;15.87;11.07;;;;;;;1.06;81.77;98901.00;516880;1095;65800;-69
2020/12/07 01:00:52;;;;;;;14.27;9.47;;;;;;;1.00;81.04;98927.09;516722;1095;65552;-68
2020/12/07 01:10:57;;;;;;;13.40;10.93;;;;;;;1.00;80.86;98890.04;516688;1090;65587;-68
2020/12/07 01:21:01;;;;;;;17.47;12.90;;;;;;;0.83;81.89;98878.58;516760;1097;65484;-69
2020/12/07 01:31:05;;;;;;;18.30;10.93;;;;;;;0.62;81.11;98852.59;516844;1098;65236;-68
2020/12/07 01:41:09;;;;;;;19.30;10.63;;;;;;;0.65;81.50;98836.97;516942;1097;65285;-69
2020/12/07 01:51:14;;;;;;;14.37;9.77;;;;;;;0.64;81.65;98855.13;517121;1097;65229;-66
2020/12/07 02:01:19;;;;;;;12.73;9.53;;;;;;;0.64;81.74;98837.87;516872;1096;65585;-69
2020/12/07 02:11:22;;;;;;;14.93;9.70;;;;;;;0.64;81.81;98845.62;516981;1096;65195;-70
2020/12/07 02:21:26;;;;;;;14.03;9.90;;;;;;;0.60;80.90;98838.88;516950;1097;65594;-69
2020/12/07 02:31:30;;;;;;;10.87;8.83;;;;;;;0.50;81.04;98846.09;517065;1097;65242;-69
2020/12/07 02:41:35;;;;;;;13.57;9.77;;;;;;;0.41;81.22;98836.93;517022;1097;65146;-69
2020/12/07 02:51:39;;;;;;;13.30;9.97;;;;;;;0.41;80.93;98844.68;517300;1097;65150;-68
2020/12/07 03:01:43;;;;;;;15.03;12.00;;;;;;;0.40;81.48;98860.22;516909;1090;65276;-68
2020/12/07 03:11:47;;;;;;;14.97;10.80;;;;;;;0.28;81.45;98843.41;517042;1093;65176;-67
2020/12/07 03:21:51;;;;;;;11.60;9.33;;;;;;;0.26;82.05;98846.04;517465;1097;65565;-69
2020/12/07 03:31:55;;;;;;;15.53;10.33;;;;;;;0.17;80.91;98848.09;516908;1097;65178;-68
2020/12/07 03:41:59;;;;;;;13.70;9.07;;;;;;;0.06;80.58;98838.97;517088;1097;65411;-68
2020/12/07 03:52:03;;;;;;;14.20;9.20;;;;;;;0.06;81.63;98846.71;517125;1090;65165;-68
2020/12/07 04:02:07;;;;;;;9.20;7.40;;;;;;;0.04;80.89;98845.06;517248;1097;65201;-69
2020/12/07 04:12:11;;;;;;;11.03;7.70;;;;;;;0.00;81.46;98826.28;517173;1097;65253;-68
2020/12/07 04:22:15;;;;;;;10.53;8.83;;;;;;;-0.08;81.95;98849.73;517269;1090;65246;-69
2020/12/07 04:32:18;;;;;;;12.25;10.50;;;;;;;-0.15;81.52;98804.39;517026;1096;65235;-70
2020/12/07 04:42:24;;;;;;;10.97;9.00;;;;;;;-0.26;82.04;98816.80;517121;1098;65582;-70
2020/12/07 04:52:28;;;;;;;16.17;8.90;;;;;;;-0.36;82.16;98822.24;517043;1097;65525;-69
2020/12/07 05:02:35;;;;;;;9.50;8.40;;;;;;;-0.38;81.70;98821.45;517259;1098;65420;-69
2020/12/07 05:12:42;;;;;;;;;;;;;;;-0.43;81.81;98803.55;516964;1097;65227;-68
2020/12/07 05:22:46;;;;;;;7.57;6.80;;;;;;;-0.47;81.08;98835.46;517256;1096;65249;-68
2020/12/07 05:32:50;;;;;;;11.55;7.75;;;;;;;-0.44;81.47;98816.48;517120;1096;65235;-69
2020/12/07 05:42:54;;;;;;;8.55;7.70;;;;;;;-0.52;80.77;98814.14;517329;1096;65176;-68
2020/12/07 05:53:00;;;;;;;11.57;6.63;;;;;;;-0.61;81.16;98798.95;517096;1096;65235;-68
2020/12/07 06:03:06;;;;;;;8.00;6.60;;;;;;;-0.65;81.52;98811.09;517126;1097;65262;-67
2020/12/07 06:13:13;;;;;;;8.50;6.35;;;;;;;-0.68;81.39;98816.34;517154;1096;65651;-69
2020/12/07 06:23:18;;;;;;;7.10;6.03;;;;;;;-0.66;81.61;98805.99;517018;1090;65238;-68
2020/12/07 06:33:23;;;;;;;10.90;8.43;;;;;;;-0.66;81.71;98813.73;517099;1096;65616;-69
2020/12/07 06:43:33;;;;;;;9.80;8.10;;;;;;;-0.63;81.87;98831.68;517222;1096;65285;-69
2020/12/07 06:53:46;;;;;;;9.13;7.20;;;;;;;-0.59;81.66;98828.96;516866;1097;65256;-69
2020/12/07 07:03:55;;;;;;;8.77;6.70;;;;;;;-0.42;81.38;98837.90;517020;1097;65239;-69
2020/12/07 07:13:59;;;;;;;10.90;7.30;;;;;;;-0.29;81.20;98848.69;517136;1096;65236;-69
2020/12/07 07:24:04;;;;;;;9.20;7.50;;;;;;;-0.16;80.18;98844.83;517178;1096;65232;-69
2020/12/07 07:34:22;;;;;;;14.47;8.73;;;;;;;-0.04;79.94;98858.23;517030;1097;65156;-69
2020/12/07 07:44:26;;;;;;;10.83;8.43;;;;;;;0.20;80.51;98868.64;516758;1090;65489;-69
2020/12/07 08:15:48;;;;;;;13.70;8.67;;;;;;;1.22;78.22;98880.60;516658;1097;65249;-69
2020/12/07 08:25:53;;;;;;;11.20;7.70;;;;;;;1.67;77.78;98870.31;517045;1097;66654;-65
2020/12/07 08:35:57;;;;;;;12.73;9.37;;;;;;;2.77;76.41;98864.95;516586;1090;65239;-64
2020/12/07 08:46:01;;;;;;;10.77;8.73;;;;;;;3.11;74.18;98889.40;516468;1090;65154;-67
2020/12/07 08:56:06;;;;;;;10.43;8.03;;;;;;;3.06;73.71;98866.29;516609;1096;65137;-65
2020/12/07 09:06:12;;;;;;;8.03;7.07;;;;;;;2.07;74.31;98873.88;516668;1090;65521;-66
2020/12/07 09:16:17;;;;;;;15.57;9.60;;;;;;;2.18;74.64;98870.88;517014;1097;65172;-69
2020/12/07 09:26:21;;;;;;;12.20;9.50;;;;;;;1.90;74.79;98882.33;516584;1093;65217;-68
2020/12/07 09:36:25;;;;;;;11.47;8.60;;;;;;;1.60;75.06;98866.27;516570;1090;65156;-69
2020/12/07 09:46:29;;;;;;;11.13;7.60;;;;;;;1.41;75.78;98864.41;516629;1097;65179;-67
2020/12/07 09:56:33;;;;;;;11.35;7.70;;;;;;;1.34;75.16;98840.52;516649;1096;65136;-67
2020/12/07 10:06:37;;;;;;;10.50;7.43;;;;;;;1.25;75.50;98874.48;516765;1097;65220;-66
2020/12/07 10:16:44;;;;;;;14.60;9.87;;;;;;;1.31;75.57;98871.65;516540;1097;65650;-63
2020/12/07 10:26:48;;;;;;;11.43;7.83;;;;;;;1.36;75.55;98861.12;516427;1095;65229;-61
2020/12/07 10:36:53;;;;;;;12.23;8.50;;;;;;;1.42;75.76;98852.30;517844;1090;65230;-62
2020/12/07 10:47:01;;;;;;;13.60;9.00;;;;;;;1.38;75.47;98870.53;516380;1095;65179;-61
2020/12/07 10:57:05;;;;;;;11.73;7.47;;;;;;;1.34;75.68;98873.28;516339;1096;65239;-61
2020/12/07 11:07:12;;;;;;;14.83;9.13;;;;;;;1.37;75.53;98876.61;516166;1095;65195;-61
2020/12/07 11:17:15;;;;;;;;;;;;;;;1.40;75.46;98842.02;518149;1090;65258;-62
2020/12/07 11:27:19;;;;;;;13.97;8.90;;;;;;;1.49;75.50;98866.69;516441;1097;65607;-59
2020/12/07 11:37:23;;;;;;;12.00;7.50;;;;;;;1.45;74.89;98858.20;516923;1090;65508;-60
2020/12/07 11:47:27;;;;;;;12.57;7.97;;;;;;;1.51;74.48;98863.16;516559;1095;65150;-64
2020/12/07 11:57:30;;;;;;;11.20;7.27;;;;;;;1.40;75.22;98829.91;516318;1096;65172;-61
2020/12/07 12:07:35;;;;;;;12.20;8.13;;;;;;;1.35;75.10;98856.86;517200;1090;65556;-63
2020/12/07 12:17:39;;;;;;;11.83;9.23;;;;;;;1.39;74.28;98832.58;517507;1097;65176;-61
2020/12/07 12:27:43;;;;;;;12.20;7.47;;;;;;;1.41;74.39;98833.36;516167;1090;65990;-64
2020/12/07 12:37:47;;;;;;;11.93;9.57;;;;;;;1.42;74.51;98842.80;516251;1097;65303;-61
2020/12/07 12:47:50;;;;;;;11.60;7.50;;;;;;;1.38;73.99;98818.78;516376;1090;65175;-62
2020/12/07 12:57:54;;;;;;;12.80;8.20;;;;;;;1.35;74.04;98852.55;518468;1095;65605;-60
2020/12/07 13:07:58;;;;;;;12.73;8.37;;;;;;;1.34;73.87;98831.89;516413;1096;65713;-61
2020/12/07 13:18:06;;;;;;;10.75;7.35;;;;;;;1.38;73.94;98828.28;517078;1097;65482;-63
2020/12/07 13:28:14;;;;;;;11.20;7.37;;;;;;;1.41;73.73;98817.83;516219;1096;65584;-63
2020/12/07 13:38:18;;;;;;;14.93;8.13;;;;;;;1.31;73.77;98826.84;519619;1090;65144;-63
2020/12/07 13:48:22;;;;;;;16.57;9.20;;;;;;;1.24;73.95;98831.41;517100;1090;65185;-63
2020/12/07 13:58:27;;;;;;;15.10;8.77;;;;;;;1.19;73.79;98830.73;516804;1098;65175;-63
2020/12/07 14:08:31;;;;;;;11.25;7.75;;;;;;;1.15;73.28;98829.17;516720;1093;65155;-70
2020/12/07 14:18:43;;;;;;;13.33;8.20;;;;;;;1.10;73.66;98837.95;516829;1093;65323;-69
2020/12/07 14:39:31;;;;;;;10.85;8.15;;;;;;;0.89;73.89;98868.00;516318;1098;65182;-64
2020/12/07 14:49:35;;;;;;;15.60;9.00;;;;;;;0.82;73.96;98874.31;517358;1093;65598;-65
2020/12/07 15:20:32;;;;;;;12.47;7.87;;;;;;;0.63;74.54;98895.61;515814;1098;65213;-64
2020/12/07 15:30:36;;;;;;;14.17;9.37;;;;;;;0.53;74.13;98896.82;516132;1093;65841;-67
2020/12/07 15:40:40;;;;;;;10.67;8.20;;;;;;;0.48;73.82;98904.72;516459;1098;65179;-66
2020/12/07 15:50:44;;;;;;;17.83;9.83;;;;;;;0.46;73.53;98911.69;517078;1098;65178;-64
2020/12/07 16:00:48;;;;;;;14.40;8.45;;;;;;;0.45;73.70;98933.25;516417;1098;65171;-63
2020/12/07 16:10:52;;;;;;;12.80;8.97;;;;;;;0.42;73.86;98899.78;516456;1093;65226;-61
2020/12/07 16:20:56;;;;;;;14.37;9.77;;;;;;;0.35;73.67;98914.64;516236;1093;65176;-61
2020/12/07 16:31:00;;;;;;;16.37;9.47;;;;;;;0.28;73.11;98913.97;520074;1098;65179;-60
2020/12/07 16:41:05;;;;;;;15.53;10.23;;;;;;;0.23;73.33;98931.36;518969;1098;65196;-62
2020/12/07 16:51:10;;;;;;;15.27;9.00;;;;;;;0.13;73.45;98932.55;516898;1093;65191;-57
2020/12/07 17:01:14;;;;;;;18.67;10.07;;;;;;;-0.04;73.31;98945.98;507334;1093;10001019;-61
2020/12/07 17:11:19;;;;;;;14.17;10.13;;;;;;;-0.12;73.92;98963.43;516267;1093;65153;-64
2020/12/07 17:21:28;;;;;;;18.67;10.83;;;;;;;-0.16;73.35;98945.47;516200;1098;65252;-62
2020/12/07 17:31:33;;;;;;;15.23;9.77;;;;;;;-0.14;74.29;98966.08;517940;1092;65246;-65
2020/12/07 17:41:38;;;;;;;15.87;11.10;;;;;;;-0.17;73.87;98941.20;516417;1098;65239;-63
2020/12/07 17:51:42;;;;;;;16.75;10.85;;;;;;;-0.21;74.29;98942.20;516498;1098;65160;-64
2020/12/07 18:01:50;;;;;;;16.80;9.90;;;;;;;-0.26;73.55;98938.06;516638;1093;65230;-66
2020/12/07 18:11:54;;;;;;;21.40;12.40;;;;;;;-0.32;73.47;98928.77;517117;1098;65226;-65
2020/12/07 18:21:58;;;;;;;20.43;12.13;;;;;;;-0.33;73.91;98942.56;508210;1098;10001039;-64
2020/12/07 18:32:03;;;;;;;18.80;11.47;;;;;;;-0.38;74.28;98942.70;516204;1098;65588;-60
2020/12/07 18:42:07;;;;;;;22.70;11.50;;;;;;;-0.43;73.36;98958.31;516233;1098;65511;-61
2020/12/07 18:52:11;;;;;;;23.40;13.00;;;;;;;-0.38;73.57;98967.64;516145;1098;65244;-62
2020/12/07 19:02:15;;;;;;;20.70;12.10;;;;;;;-0.43;73.32;98954.88;516615;1098;65188;-65
2020/12/07 19:12:19;;;;;;;26.35;12.70;;;;;;;-0.43;73.67;98949.72;516600;1098;65153;-62
2020/12/07 19:22:23;;;;;;;23.43;13.00;;;;;;;-0.41;73.24;98960.00;516225;1093;66130;-62
2020/12/07 19:32:27;;;;;;;20.80;13.20;;;;;;;-0.41;73.88;98972.89;516532;1098;65535;-61
2020/12/07 19:42:31;;;;;;;18.73;10.87;;;;;;;-0.37;72.66;98988.25;517005;1098;65221;-60
2020/12/07 19:52:35;;;;;;;21.57;12.53;;;;;;;-0.40;72.95;98967.70;516492;1093;65156;-62
2020/12/07 20:02:42;;;;;;;19.63;13.03;;;;;;;-0.43;72.95;98991.84;516600;1093;65244;-60
2020/12/07 20:12:46;;;;;;;19.98;11.22;;;;;;;-0.45;73.23;98974.72;516472;1098;65528;-59
2020/12/07 20:22:51;;;;;;;19.30;12.30;;;;;;;-0.45;73.67;98972.13;516788;1093;65232;-56
2020/12/07 20:32:55;;;;;;;23.83;13.10;;;;;;;-0.50;73.93;98980.00;516491;1093;65584;-60
2020/12/07 20:42:59;;;;;;;19.97;11.33;;;;;;;-0.52;72.83;98976.62;516803;1098;65190;-62
2020/12/07 20:53:04;;;;;;;18.50;11.30;;;;;;;-0.58;72.89;98987.96;516761;1098;65182;-62
2020/12/07 21:03:09;;;;;;;17.73;11.07;;;;;;;-0.67;72.88;98992.54;516677;1093;65185;-60
2020/12/07 21:13:13;;;;;;;21.57;12.53;;;;;;;-0.74;73.84;98982.38;516651;1098;65163;-60
2020/12/07 21:23:17;;;;;;;20.93;12.90;;;;;;;-0.82;73.60;99015.25;516498;1093;65590;-61
2020/12/07 21:33:21;;;;;;;16.57;11.00;;;;;;;-0.94;74.02;98998.39;516665;1098;65182;-59
2020/12/07 21:43:25;;;;;;;19.67;10.73;;;;;;;-1.11;74.06;98998.83;516961;1098;65173;-60
2020/12/07 21:53:29;;;;;;;19.90;12.03;;;;;;;-1.22;74.13;98998.26;516625;1093;65290;-63
2020/12/07 22:03:33;;;;;;;19.77;12.07;;;;;;;-1.36;74.25;98993.44;516378;1092;65185;-62
2020/12/07 22:13:37;;;;;;;20.70;12.83;;;;;;;-1.41;73.93;98999.56;516487;1098;65172;-61
2020/12/07 22:23:42;;;;;;;17.77;11.37;;;;;;;-1.45;74.09;98992.78;516365;1098;65385;-61
2020/12/07 22:33:46;;;;;;;19.83;11.63;;;;;;;-1.46;74.13;99009.12;516441;1098;65517;-65
2020/12/07 22:43:50;;;;;;;18.45;11.90;;;;;;;-1.53;74.65;99015.31;516662;1093;65258;-61
2020/12/07 22:53:54;;;;;;;23.20;11.45;;;;;;;-1.57;74.55;99022.26;516646;1098;65181;-61
2020/12/07 23:03:58;;;;;;;26.80;13.10;;;;;;;-1.58;74.10;98988.81;516313;1093;65271;-62
2020/12/07 23:14:03;;;;;;;20.73;11.90;;;;;;;-1.65;74.80;98995.84;516668;1093;65223;-61
2020/12/07 23:24:08;;;;;;;21.37;11.83;;;;;;;-1.63;74.54;99006.11;516677;1098;65155;-62
2020/12/07 23:34:12;;;;;;;21.87;11.40;;;;;;;-1.67;74.39;99007.05;516622;1098;65194;-61
2020/12/07 23:44:16;;;;;;;17.63;11.57;;;;;;;-1.70;74.86;99008.81;516401;1098;65179;-61
2020/12/07 23:54:20;;;;;;;22.63;13.60;;;;;;;-1.71;74.19;99016.59;516287;1098;65594;-62
